sensor_id;sensor_type;location;lat;lon;timestamp;P1;durP1;ratioP1;P2;durP2;ratioP2
18507;SDS011;9383;50.928;12.116;2023-04-16T00:00:21;8.68;;;8.02;;
18507;SDS011;9383;50.928;12.116;2023-04-16T00:02:49;7.95;;;7.25;;
18507;SDS011;9383;50.928;12.116;2023-04-16T00:05:17;8.43;;;7.75;;
18507;SDS011;9383;50.928;12.116;2023-04-16T00:07:43;8.65;;;7.85;;
18507;SDS011;9383;50.928;12.116;2023-04-16T00:10:10;9.73;;;8.82;;
18507;SDS011;9383;50.928;12.116;2023-04-16T00:12:37;9.23;;;8.48;;
18507;SDS011;9383;50.928;12.116;2023-04-16T00:15:04;8.38;;;7.75;;
18507;SDS011;9383;50.928;12.116;2023-04-16T00:17:30;9.77;;;8.98;;
18507;SDS011;9383;50.928;12.116;2023-04-16T00:19:57;10.05;;;9.18;;
18507;SDS011;9383;50.928;12.116;2023-04-16T00:22:24;8.50;;;7.90;;
18507;SDS011;9383;50.928;12.116;2023-04-16T00:24:50;8.63;;;7.82;;
18507;SDS011;9383;50.928;12.116;2023-04-16T00:27:17;8.00;;;7.30;;
18507;SDS011;9383;50.928;12.116;2023-04-16T00:29:44;7.90;;;7.30;;
18507;SDS011;9383;50.928;12.116;2023-04-16T00:32:11;7.55;;;6.95;;
18507;SDS011;9383;50.928;12.116;2023-04-16T00:34:37;7.55;;;6.95;;
18507;SDS011;9383;50.928;12.116;2023-04-16T00:37:04;8.80;;;7.55;;
18507;SDS011;9383;50.928;12.116;2023-04-16T00:39:31;9.80;;;8.90;;
18507;SDS011;9383;50.928;12.116;2023-04-16T00:41:57;8.02;;;7.35;;
18507;SDS011;9383;50.928;12.116;2023-04-16T00:44:24;11.23;;;8.00;;
18507;SDS011;9383;50.928;12.116;2023-04-16T00:46:50;7.80;;;7.20;;
18507;SDS011;9383;50.928;12.116;2023-04-16T00:49:17;8.35;;;7.65;;
18507;SDS011;9383;50.928;12.116;2023-04-16T00:51:44;8.77;;;8.02;;
18507;SDS011;9383;50.928;12.116;2023-04-16T00:54:10;9.38;;;8.57;;
18507;SDS011;9383;50.928;12.116;2023-04-16T00:56:37;10.18;;;9.38;;
18507;SDS011;9383;50.928;12.116;2023-04-16T00:59:04;11.95;;;10.88;;
18507;SDS011;9383;50.928;12.116;2023-04-16T01:01:30;11.95;;;10.75;;
18507;SDS011;9383;50.928;12.116;2023-04-16T01:03:57;12.00;;;10.98;;
18507;SDS011;9383;50.928;12.116;2023-04-16T01:06:23;11.45;;;10.35;;
18507;SDS011;9383;50.928;12.116;2023-04-16T01:08:51;12.15;;;11.05;;
18507;SDS011;9383;50.928;12.116;2023-04-16T01:11:17;12.50;;;11.38;;
18507;SDS011;9383;50.928;12.116;2023-04-16T01:13:44;12.38;;;11.27;;
18507;SDS011;9383;50.928;12.116;2023-04-16T01:16:11;12.38;;;11.27;;
18507;SDS011;9383;50.928;12.116;2023-04-16T01:18:37;12.20;;;11.10;;
18507;SDS011;9383;50.928;12.116;2023-04-16T01:21:04;13.13;;;11.85;;
18507;SDS011;9383;50.928;12.116;2023-04-16T01:23:31;12.88;;;11.40;;
18507;SDS011;9383;50.928;12.116;2023-04-16T01:25:58;13.77;;;12.48;;
18507;SDS011;9383;50.928;12.116;2023-04-16T01:28:24;12.60;;;11.50;;
18507;SDS011;9383;50.928;12.116;2023-04-16T01:30:51;11.50;;;10.35;;
18507;SDS011;9383;50.928;12.116;2023-04-16T01:33:19;12.88;;;11.57;;
18507;SDS011;9383;50.928;12.116;2023-04-16T01:35:47;11.27;;;10.23;;
18507;SDS011;9383;50.928;12.116;2023-04-16T01:38:14;11.30;;;10.30;;
18507;SDS011;9383;50.928;12.116;2023-04-16T01:40:40;12.90;;;11.60;;
18507;SDS011;9383;50.928;12.116;2023-04-16T01:43:07;12.52;;;11.32;;
18507;SDS011;9383;50.928;12.116;2023-04-16T01:45:37;13.48;;;12.07;;
18507;SDS011;9383;50.928;12.116;2023-04-16T01:48:03;14.27;;;12.75;;
18507;SDS011;9383;50.928;12.116;2023-04-16T01:50:30;13.38;;;12.10;;
18507;SDS011;9383;50.928;12.116;2023-04-16T01:52:57;13.77;;;12.43;;
18507;SDS011;9383;50.928;12.116;2023-04-16T01:55:23;13.55;;;12.15;;
18507;SDS011;9383;50.928;12.116;2023-04-16T01:57:51;11.98;;;10.77;;
18507;SDS011;9383;50.928;12.116;2023-04-16T02:00:18;11.18;;;10.18;;
18507;SDS011;9383;50.928;12.116;2023-04-16T02:02:45;11.27;;;10.18;;
18507;SDS011;9383;50.928;12.116;2023-04-16T02:05:13;9.43;;;8.52;;
18507;SDS011;9383;50.928;12.116;2023-04-16T02:07:41;9.63;;;8.73;;
18507;SDS011;9383;50.928;12.116;2023-04-16T02:10:09;9.38;;;8.57;;
18507;SDS011;9383;50.928;12.116;2023-04-16T02:12:36;9.35;;;8.50;;
18507;SDS011;9383;50.928;12.116;2023-04-16T02:15:02;9.50;;;8.70;;
18507;SDS011;9383;50.928;12.116;2023-04-16T02:17:29;11.90;;;10.70;;
18507;SDS011;9383;50.928;12.116;2023-04-16T02:19:56;17.77;;;9.82;;
18507;SDS011;9383;50.928;12.116;2023-04-16T02:22:22;11.77;;;10.70;;
18507;SDS011;9383;50.928;12.116;2023-04-16T02:24:49;14.70;;;10.90;;
18507;SDS011;9383;50.928;12.116;2023-04-16T02:27:15;12.48;;;11.27;;
18507;SDS011;9383;50.928;12.116;2023-04-16T02:29:41;12.98;;;11.73;;
18507;SDS011;9383;50.928;12.116;2023-04-16T02:32:08;21.08;;;13.45;;
18507;SDS011;9383;50.928;12.116;2023-04-16T02:34:35;16.95;;;12.82;;
18507;SDS011;9383;50.928;12.116;2023-04-16T02:37:04;13.27;;;12.07;;
18507;SDS011;9383;50.928;12.116;2023-04-16T02:39:31;13.20;;;12.00;;
18507;SDS011;9383;50.928;12.116;2023-04-16T02:41:58;13.65;;;12.35;;
18507;SDS011;9383;50.928;12.116;2023-04-16T02:44:25;13.52;;;12.25;;
18507;SDS011;9383;50.928;12.116;2023-04-16T02:46:52;12.82;;;11.30;;
18507;SDS011;9383;50.928;12.116;2023-04-16T02:49:18;12.95;;;11.75;;
18507;SDS011;9383;50.928;12.116;2023-04-16T02:51:45;13.05;;;11.75;;
18507;SDS011;9383;50.928;12.116;2023-04-16T02:54:11;11.65;;;10.55;;
18507;SDS011;9383;50.928;12.116;2023-04-16T02:56:38;14.02;;;11.95;;
18507;SDS011;9383;50.928;12.116;2023-04-16T02:59:04;12.52;;;11.15;;
18507;SDS011;9383;50.928;12.116;2023-04-16T03:01:31;12.45;;;11.25;;
18507;SDS011;9383;50.928;12.116;2023-04-16T03:03:57;11.75;;;10.65;;
18507;SDS011;9383;50.928;12.116;2023-04-16T03:06:24;12.57;;;11.30;;
18507;SDS011;9383;50.928;12.116;2023-04-16T03:08:51;12.50;;;11.20;;
18507;SDS011;9383;50.928;12.116;2023-04-16T03:11:17;12.30;;;11.07;;
18507;SDS011;9383;50.928;12.116;2023-04-16T03:13:44;11.25;;;10.25;;
18507;SDS011;9383;50.928;12.116;2023-04-16T03:16:11;10.75;;;9.60;;
18507;SDS011;9383;50.928;12.116;2023-04-16T03:18:43;10.57;;;9.57;;
18507;SDS011;9383;50.928;12.116;2023-04-16T03:21:10;11.88;;;10.68;;
18507;SDS011;9383;50.928;12.116;2023-04-16T03:23:36;11.30;;;10.20;;
18507;SDS011;9383;50.928;12.116;2023-04-16T03:26:04;11.10;;;10.00;;
18507;SDS011;9383;50.928;12.116;2023-04-16T03:28:30;10.23;;;9.30;;
18507;SDS011;9383;50.928;12.116;2023-04-16T03:30:57;9.13;;;8.27;;
18507;SDS011;9383;50.928;12.116;2023-04-16T03:33:23;9.93;;;9.02;;
18507;SDS011;9383;50.928;12.116;2023-04-16T03:35:53;10.85;;;9.82;;
18507;SDS011;9383;50.928;12.116;2023-04-16T03:38:23;11.98;;;10.77;;
18507;SDS011;9383;50.928;12.116;2023-04-16T03:40:51;13.20;;;11.30;;
18507;SDS011;9383;50.928;12.116;2023-04-16T03:43:17;17.38;;;13.55;;
18507;SDS011;9383;50.928;12.116;2023-04-16T03:45:44;45.83;;;15.77;;
18507;SDS011;9383;50.928;12.116;2023-04-16T03:48:11;31.17;;;14.82;;
18507;SDS011;9383;50.928;12.116;2023-04-16T03:50:38;15.60;;;13.90;;
18507;SDS011;9383;50.928;12.116;2023-04-16T03:53:04;15.45;;;13.15;;
18507;SDS011;9383;50.928;12.116;2023-04-16T03:55:30;14.07;;;12.57;;
18507;SDS011;9383;50.928;12.116;2023-04-16T03:57:57;13.00;;;11.68;;
18507;SDS011;9383;50.928;12.116;2023-04-16T04:00:28;13.55;;;12.25;;
18507;SDS011;9383;50.928;12.116;2023-04-16T04:02:55;13.68;;;12.00;;
18507;SDS011;9383;50.928;12.116;2023-04-16T04:05:22;13.23;;;11.88;;
18507;SDS011;9383;50.928;12.116;2023-04-16T04:07:48;15.02;;;13.13;;
18507;SDS011;9383;50.928;12.116;2023-04-16T04:10:15;14.52;;;13.13;;
18507;SDS011;9383;50.928;12.116;2023-04-16T04:12:41;14.50;;;13.10;;
18507;SDS011;9383;50.928;12.116;2023-04-16T04:15:08;15.52;;;13.88;;
18507;SDS011;9383;50.928;12.116;2023-04-16T04:17:35;15.27;;;13.77;;
18507;SDS011;9383;50.928;12.116;2023-04-16T04:20:02;16.40;;;14.75;;
18507;SDS011;9383;50.928;12.116;2023-04-16T04:22:28;15.35;;;13.80;;
18507;SDS011;9383;50.928;12.116;2023-04-16T04:24:55;16.05;;;14.35;;
18507;SDS011;9383;50.928;12.116;2023-04-16T04:27:21;16.58;;;14.88;;
18507;SDS011;9383;50.928;12.116;2023-04-16T04:29:48;15.35;;;13.75;;
18507;SDS011;9383;50.928;12.116;2023-04-16T04:32:14;16.27;;;14.10;;
18507;SDS011;9383;50.928;12.116;2023-04-16T04:34:41;15.35;;;13.80;;
18507;SDS011;9383;50.928;12.116;2023-04-16T04:37:07;16.08;;;14.38;;
18507;SDS011;9383;50.928;12.116;2023-04-16T04:39:34;16.08;;;14.27;;
18507;SDS011;9383;50.928;12.116;2023-04-16T04:42:00;15.60;;;14.02;;
18507;SDS011;9383;50.928;12.116;2023-04-16T04:44:27;15.02;;;13.52;;
18507;SDS011;9383;50.928;12.116;2023-04-16T04:46:53;14.05;;;12.65;;
18507;SDS011;9383;50.928;12.116;2023-04-16T04:49:20;14.98;;;13.40;;
18507;SDS011;9383;50.928;12.116;2023-04-16T04:51:47;14.68;;;13.13;;
18507;SDS011;9383;50.928;12.116;2023-04-16T04:54:13;14.45;;;13.02;;
18507;SDS011;9383;50.928;12.116;2023-04-16T04:56:40;15.05;;;13.45;;
18507;SDS011;9383;50.928;12.116;2023-04-16T04:59:09;15.70;;;14.05;;
18507;SDS011;9383;50.928;12.116;2023-04-16T05:01:36;15.95;;;14.35;;
18507;SDS011;9383;50.928;12.116;2023-04-16T05:04:03;15.00;;;13.45;;
18507;SDS011;9383;50.928;12.116;2023-04-16T05:06:29;15.02;;;13.43;;
18507;SDS011;9383;50.928;12.116;2023-04-16T05:08:56;15.75;;;14.15;;
18507;SDS011;9383;50.928;12.116;2023-04-16T05:11:22;15.73;;;14.05;;
18507;SDS011;9383;50.928;12.116;2023-04-16T05:13:49;14.98;;;13.38;;
18507;SDS011;9383;50.928;12.116;2023-04-16T05:16:15;15.25;;;13.75;;
18507;SDS011;9383;50.928;12.116;2023-04-16T05:18:42;15.05;;;13.55;;
18507;SDS011;9383;50.928;12.116;2023-04-16T05:21:09;15.02;;;13.60;;
18507;SDS011;9383;50.928;12.116;2023-04-16T05:23:35;15.85;;;14.35;;
18507;SDS011;9383;50.928;12.116;2023-04-16T05:26:02;15.35;;;13.85;;
18507;SDS011;9383;50.928;12.116;2023-04-16T05:28:28;15.63;;;14.10;;
18507;SDS011;9383;50.928;12.116;2023-04-16T05:30:55;15.60;;;14.02;;
18507;SDS011;9383;50.928;12.116;2023-04-16T05:33:22;15.35;;;13.80;;
18507;SDS011;9383;50.928;12.116;2023-04-16T05:35:48;15.63;;;14.02;;
18507;SDS011;9383;50.928;12.116;2023-04-16T05:38:15;14.68;;;13.13;;
18507;SDS011;9383;50.928;12.116;2023-04-16T05:40:41;16.63;;;15.02;;
18507;SDS011;9383;50.928;12.116;2023-04-16T05:43:08;15.48;;;13.98;;
18507;SDS011;9383;50.928;12.116;2023-04-16T05:45:35;14.88;;;13.48;;
18507;SDS011;9383;50.928;12.116;2023-04-16T05:48:06;15.70;;;14.20;;
18507;SDS011;9383;50.928;12.116;2023-04-16T05:50:33;14.45;;;13.10;;
18507;SDS011;9383;50.928;12.116;2023-04-16T05:53:01;15.50;;;14.13;;
18507;SDS011;9383;50.928;12.116;2023-04-16T05:55:30;14.88;;;13.55;;
18507;SDS011;9383;50.928;12.116;2023-04-16T05:57:57;14.05;;;12.73;;
18507;SDS011;9383;50.928;12.116;2023-04-16T06:00:23;15.27;;;13.88;;
18507;SDS011;9383;50.928;12.116;2023-04-16T06:02:50;12.85;;;11.65;;
18507;SDS011;9383;50.928;12.116;2023-04-16T06:05:16;14.93;;;13.35;;
18507;SDS011;9383;50.928;12.116;2023-04-16T06:07:43;14.18;;;12.68;;
18507;SDS011;9383;50.928;12.116;2023-04-16T06:10:10;14.82;;;13.23;;
18507;SDS011;9383;50.928;12.116;2023-04-16T06:12:36;14.82;;;13.43;;
18507;SDS011;9383;50.928;12.116;2023-04-16T06:15:03;15.82;;;14.25;;
18507;SDS011;9383;50.928;12.116;2023-04-16T06:17:31;15.38;;;13.77;;
18507;SDS011;9383;50.928;12.116;2023-04-16T06:19:57;15.52;;;14.02;;
18507;SDS011;9383;50.928;12.116;2023-04-16T06:22:24;15.50;;;13.98;;
18507;SDS011;9383;50.928;12.116;2023-04-16T06:24:51;16.52;;;14.93;;
18507;SDS011;9383;50.928;12.116;2023-04-16T06:27:18;16.15;;;14.50;;
18507;SDS011;9383;50.928;12.116;2023-04-16T06:29:44;15.65;;;14.05;;
18507;SDS011;9383;50.928;12.116;2023-04-16T06:32:11;15.00;;;13.50;;
18507;SDS011;9383;50.928;12.116;2023-04-16T06:34:37;14.55;;;13.23;;
18507;SDS011;9383;50.928;12.116;2023-04-16T06:37:04;15.82;;;14.23;;
18507;SDS011;9383;50.928;12.116;2023-04-16T06:39:31;15.57;;;14.00;;
18507;SDS011;9383;50.928;12.116;2023-04-16T06:41:58;14.48;;;13.07;;
18507;SDS011;9383;50.928;12.116;2023-04-16T06:44:25;15.52;;;14.05;;
18507;SDS011;9383;50.928;12.116;2023-04-16T06:46:52;16.08;;;14.52;;
18507;SDS011;9383;50.928;12.116;2023-04-16T06:49:19;16.17;;;14.57;;
18507;SDS011;9383;50.928;12.116;2023-04-16T06:51:45;15.55;;;13.98;;
18507;SDS011;9383;50.928;12.116;2023-04-16T06:54:12;15.82;;;14.32;;
18507;SDS011;9383;50.928;12.116;2023-04-16T06:56:39;15.02;;;13.52;;
18507;SDS011;9383;50.928;12.116;2023-04-16T06:59:17;14.38;;;12.98;;
18507;SDS011;9383;50.928;12.116;2023-04-16T07:01:44;15.25;;;13.75;;
18507;SDS011;9383;50.928;12.116;2023-04-16T07:04:11;14.80;;;13.35;;
18507;SDS011;9383;50.928;12.116;2023-04-16T07:06:37;14.63;;;13.23;;
18507;SDS011;9383;50.928;12.116;2023-04-16T07:09:04;15.00;;;13.52;;
18507;SDS011;9383;50.928;12.116;2023-04-16T07:11:31;15.23;;;13.80;;
18507;SDS011;9383;50.928;12.116;2023-04-16T07:13:57;14.73;;;13.23;;
18507;SDS011;9383;50.928;12.116;2023-04-16T07:16:24;13.48;;;12.25;;
18507;SDS011;9383;50.928;12.116;2023-04-16T07:18:51;12.38;;;11.27;;
18507;SDS011;9383;50.928;12.116;2023-04-16T07:21:17;12.10;;;11.00;;
18507;SDS011;9383;50.928;12.116;2023-04-16T07:23:44;10.88;;;9.85;;
18507;SDS011;9383;50.928;12.116;2023-04-16T07:26:10;9.50;;;8.68;;
18507;SDS011;9383;50.928;12.116;2023-04-16T07:28:37;8.45;;;7.70;;
18507;SDS011;9383;50.928;12.116;2023-04-16T07:31:03;8.93;;;8.23;;
18507;SDS011;9383;50.928;12.116;2023-04-16T07:33:30;8.98;;;8.18;;
18507;SDS011;9383;50.928;12.116;2023-04-16T07:35:57;8.75;;;7.95;;
18507;SDS011;9383;50.928;12.116;2023-04-16T07:38:23;10.13;;;8.07;;
18507;SDS011;9383;50.928;12.116;2023-04-16T07:40:50;9.18;;;8.38;;
18507;SDS011;9383;50.928;12.116;2023-04-16T07:43:17;8.27;;;7.57;;
18507;SDS011;9383;50.928;12.116;2023-04-16T07:45:43;8.48;;;7.68;;
18507;SDS011;9383;50.928;12.116;2023-04-16T07:48:10;6.15;;;5.65;;
18507;SDS011;9383;50.928;12.116;2023-04-16T07:50:36;6.88;;;6.28;;
18507;SDS011;9383;50.928;12.116;2023-04-16T07:53:03;5.47;;;5.07;;
18507;SDS011;9383;50.928;12.116;2023-04-16T07:55:31;5.82;;;5.22;;
18507;SDS011;9383;50.928;12.116;2023-04-16T07:57:58;7.35;;;5.40;;
18507;SDS011;9383;50.928;12.116;2023-04-16T08:00:24;5.55;;;5.15;;
18507;SDS011;9383;50.928;12.116;2023-04-16T08:02:51;4.78;;;4.38;;
18507;SDS011;9383;50.928;12.116;2023-04-16T08:05:18;4.03;;;3.72;;
18507;SDS011;9383;50.928;12.116;2023-04-16T08:07:45;2.83;;;2.63;;
18507;SDS011;9383;50.928;12.116;2023-04-16T08:10:12;2.90;;;2.55;;
18507;SDS011;9383;50.928;12.116;2023-04-16T08:12:38;2.78;;;2.50;;
18507;SDS011;9383;50.928;12.116;2023-04-16T08:15:05;3.00;;;2.80;;
18507;SDS011;9383;50.928;12.116;2023-04-16T08:17:32;3.13;;;2.92;;
18507;SDS011;9383;50.928;12.116;2023-04-16T08:19:59;3.17;;;2.97;;
18507;SDS011;9383;50.928;12.116;2023-04-16T08:22:26;2.75;;;2.60;;
18507;SDS011;9383;50.928;12.116;2023-04-16T08:24:53;3.42;;;3.10;;
18507;SDS011;9383;50.928;12.116;2023-04-16T08:27:20;3.85;;;3.00;;
18507;SDS011;9383;50.928;12.116;2023-04-16T08:29:48;3.20;;;2.90;;
18507;SDS011;9383;50.928;12.116;2023-04-16T08:32:14;3.40;;;3.10;;
18507;SDS011;9383;50.928;12.116;2023-04-16T08:34:41;3.80;;;3.53;;
18507;SDS011;9383;50.928;12.116;2023-04-16T08:37:08;3.67;;;3.38;;
18507;SDS011;9383;50.928;12.116;2023-04-16T08:39:36;3.75;;;3.45;;
18507;SDS011;9383;50.928;12.116;2023-04-16T08:42:06;3.80;;;3.50;;
18507;SDS011;9383;50.928;12.116;2023-04-16T08:45:05;4.50;;;4.10;;
18507;SDS011;9383;50.928;12.116;2023-04-16T08:47:47;4.43;;;4.13;;
18507;SDS011;9383;50.928;12.116;2023-04-16T08:50:16;3.92;;;3.60;;
18507;SDS011;9383;50.928;12.116;2023-04-16T08:53:03;4.03;;;3.72;;
18507;SDS011;9383;50.928;12.116;2023-04-16T08:55:34;4.13;;;3.83;;
18507;SDS011;9383;50.928;12.116;2023-04-16T08:58:07;4.65;;;4.25;;
18507;SDS011;9383;50.928;12.116;2023-04-16T09:01:04;4.07;;;3.78;;
18507;SDS011;9383;50.928;12.116;2023-04-16T09:03:33;5.00;;;4.32;;
18507;SDS011;9383;50.928;12.116;2023-04-16T09:06:00;4.43;;;4.13;;
18507;SDS011;9383;50.928;12.116;2023-04-16T09:08:28;4.13;;;3.83;;
18507;SDS011;9383;50.928;12.116;2023-04-16T09:10:56;3.70;;;3.42;;
18507;SDS011;9383;50.928;12.116;2023-04-16T09:13:24;3.03;;;2.83;;
18507;SDS011;9383;50.928;12.116;2023-04-16T09:15:53;4.25;;;3.95;;
18507;SDS011;9383;50.928;12.116;2023-04-16T09:18:24;3.53;;;3.25;;
18507;SDS011;9383;50.928;12.116;2023-04-16T09:20:52;3.13;;;2.88;;
18507;SDS011;9383;50.928;12.116;2023-04-16T09:23:20;2.70;;;2.50;;
18507;SDS011;9383;50.928;12.116;2023-04-16T09:25:47;2.50;;;2.30;;
18507;SDS011;9383;50.928;12.116;2023-04-16T09:28:37;3.65;;;3.30;;
18507;SDS011;9383;50.928;12.116;2023-04-16T09:31:14;2.53;;;2.33;;
18507;SDS011;9383;50.928;12.116;2023-04-16T09:33:41;3.25;;;1.95;;
18507;SDS011;9383;50.928;12.116;2023-04-16T09:36:24;3.17;;;2.40;;
18507;SDS011;9383;50.928;12.116;2023-04-16T09:38:53;2.72;;;2.50;;
18507;SDS011;9383;50.928;12.116;2023-04-16T09:41:23;3.00;;;2.80;;
18507;SDS011;9383;50.928;12.116;2023-04-16T09:43:55;3.50;;;3.20;;
18507;SDS011;9383;50.928;12.116;2023-04-16T09:46:28;3.03;;;2.83;;
18507;SDS011;9383;50.928;12.116;2023-04-16T09:49:14;3.25;;;3.05;;
18507;SDS011;9383;50.928;12.116;2023-04-16T09:51:50;4.53;;;4.13;;
18507;SDS011;9383;50.928;12.116;2023-04-16T09:54:20;8.32;;;6.63;;
18507;SDS011;9383;50.928;12.116;2023-04-16T09:56:46;6.00;;;5.18;;
18507;SDS011;9383;50.928;12.116;2023-04-16T09:59:17;4.85;;;4.28;;
18507;SDS011;9383;50.928;12.116;2023-04-16T10:01:47;3.70;;;3.40;;
18507;SDS011;9383;50.928;12.116;2023-04-16T10:04:15;2.92;;;2.70;;
18507;SDS011;9383;50.928;12.116;2023-04-16T10:06:41;3.17;;;2.78;;
18507;SDS011;9383;50.928;12.116;2023-04-16T10:09:08;3.13;;;2.92;;
18507;SDS011;9383;50.928;12.116;2023-04-16T10:11:35;3.25;;;3.05;;
18507;SDS011;9383;50.928;12.116;2023-04-16T10:14:02;3.90;;;3.60;;
18507;SDS011;9383;50.928;12.116;2023-04-16T10:16:29;3.95;;;3.65;;
18507;SDS011;9383;50.928;12.116;2023-04-16T10:18:56;4.10;;;3.90;;
18507;SDS011;9383;50.928;12.116;2023-04-16T10:21:43;4.32;;;4.03;;
18507;SDS011;9383;50.928;12.116;2023-04-16T10:24:10;4.38;;;4.07;;
18507;SDS011;9383;50.928;12.116;2023-04-16T10:26:37;5.32;;;4.93;;
18507;SDS011;9383;50.928;12.116;2023-04-16T10:29:05;4.30;;;4.00;;
18507;SDS011;9383;50.928;12.116;2023-04-16T10:31:33;4.60;;;4.30;;
18507;SDS011;9383;50.928;12.116;2023-04-16T10:34:02;4.32;;;4.03;;
18507;SDS011;9383;50.928;12.116;2023-04-16T10:36:29;4.07;;;3.78;;
18507;SDS011;9383;50.928;12.116;2023-04-16T10:38:59;4.50;;;4.20;;
18507;SDS011;9383;50.928;12.116;2023-04-16T10:41:25;5.88;;;5.47;;
18507;SDS011;9383;50.928;12.116;2023-04-16T10:43:52;5.65;;;5.25;;
18507;SDS011;9383;50.928;12.116;2023-04-16T10:46:32;5.25;;;4.90;;
18507;SDS011;9383;50.928;12.116;2023-04-16T10:49:02;6.00;;;5.60;;
18507;SDS011;9383;50.928;12.116;2023-04-16T10:51:38;5.38;;;4.97;;
18507;SDS011;9383;50.928;12.116;2023-04-16T10:56:35;5.75;;;5.28;;
18507;SDS011;9383;50.928;12.116;2023-04-16T10:59:11;5.18;;;4.88;;
18507;SDS011;9383;50.928;12.116;2023-04-16T11:01:43;5.10;;;4.80;;
18507;SDS011;9383;50.928;12.116;2023-04-16T11:09:45;5.50;;;5.10;;
18507;SDS011;9383;50.928;12.116;2023-04-16T11:12:37;5.32;;;4.93;;
18507;SDS011;9383;50.928;12.116;2023-04-16T11:17:52;6.20;;;5.70;;
18507;SDS011;9383;50.928;12.116;2023-04-16T11:20:22;6.93;;;6.40;;
18507;SDS011;9383;50.928;12.116;2023-04-16T11:22:52;6.75;;;6.28;;
18507;SDS011;9383;50.928;12.116;2023-04-16T11:25:27;6.78;;;6.28;;
18507;SDS011;9383;50.928;12.116;2023-04-16T11:27:55;5.90;;;5.45;;
18507;SDS011;9383;50.928;12.116;2023-04-16T11:30:34;6.60;;;6.10;;
18507;SDS011;9383;50.928;12.116;2023-04-16T11:33:05;7.43;;;6.82;;
18507;SDS011;9383;50.928;12.116;2023-04-16T11:35:40;6.55;;;6.05;;
18507;SDS011;9383;50.928;12.116;2023-04-16T11:38:08;6.85;;;6.35;;
18507;SDS011;9383;50.928;12.116;2023-04-16T11:40:35;6.05;;;5.65;;
18507;SDS011;9383;50.928;12.116;2023-04-16T11:43:03;5.97;;;5.57;;
18507;SDS011;9383;50.928;12.116;2023-04-16T11:45:56;6.15;;;5.68;;
18507;SDS011;9383;50.928;12.116;2023-04-16T11:48:24;6.07;;;5.57;;
18507;SDS011;9383;50.928;12.116;2023-04-16T11:51:09;6.07;;;5.60;;
18507;SDS011;9383;50.928;12.116;2023-04-16T11:53:43;6.38;;;5.88;;
18507;SDS011;9383;50.928;12.116;2023-04-16T11:56:32;5.95;;;5.53;;
18507;SDS011;9383;50.928;12.116;2023-04-16T11:59:07;5.93;;;5.50;;
18507;SDS011;9383;50.928;12.116;2023-04-16T12:01:35;6.78;;;6.28;;
18507;SDS011;9383;50.928;12.116;2023-04-16T12:04:03;7.13;;;6.63;;
18507;SDS011;9383;50.928;12.116;2023-04-16T12:09:31;7.43;;;6.82;;
18507;SDS011;9383;50.928;12.116;2023-04-16T12:11:59;7.05;;;6.55;;
18507;SDS011;9383;50.928;12.116;2023-04-16T12:14:26;7.45;;;6.85;;
18507;SDS011;9383;50.928;12.116;2023-04-16T12:16:55;7.75;;;7.05;;
18507;SDS011;9383;50.928;12.116;2023-04-16T12:19:56;7.00;;;6.50;;
18507;SDS011;9383;50.928;12.116;2023-04-16T12:22:26;6.93;;;6.22;;
18507;SDS011;9383;50.928;12.116;2023-04-16T12:24:58;6.53;;;6.03;;
18507;SDS011;9383;50.928;12.116;2023-04-16T12:27:28;6.75;;;6.25;;
18507;SDS011;9383;50.928;12.116;2023-04-16T12:30:10;5.57;;;5.18;;
18507;SDS011;9383;50.928;12.116;2023-04-16T12:32:37;6.88;;;6.38;;
18507;SDS011;9383;50.928;12.116;2023-04-16T12:35:05;6.20;;;5.80;;
18507;SDS011;9383;50.928;12.116;2023-04-16T12:37:32;6.53;;;6.03;;
18507;SDS011;9383;50.928;12.116;2023-04-16T12:40:00;6.60;;;6.07;;
18507;SDS011;9383;50.928;12.116;2023-04-16T12:42:27;7.03;;;6.53;;
18507;SDS011;9383;50.928;12.116;2023-04-16T12:45:01;6.22;;;5.72;;
18507;SDS011;9383;50.928;12.116;2023-04-16T12:47:29;6.38;;;5.93;;
18507;SDS011;9383;50.928;12.116;2023-04-16T12:49:57;5.05;;;4.65;;
18507;SDS011;9383;50.928;12.116;2023-04-16T12:52:24;4.85;;;4.38;;
18507;SDS011;9383;50.928;12.116;2023-04-16T12:55:00;4.97;;;4.68;;
18507;SDS011;9383;50.928;12.116;2023-04-16T12:57:27;5.90;;;5.50;;
18507;SDS011;9383;50.928;12.116;2023-04-16T12:59:54;6.53;;;6.05;;
18507;SDS011;9383;50.928;12.116;2023-04-16T13:02:21;6.18;;;5.78;;
18507;SDS011;9383;50.928;12.116;2023-04-16T13:04:49;6.30;;;5.90;;
18507;SDS011;9383;50.928;12.116;2023-04-16T13:07:17;5.75;;;5.32;;
18507;SDS011;9383;50.928;12.116;2023-04-16T13:09:44;6.15;;;5.65;;
18507;SDS011;9383;50.928;12.116;2023-04-16T13:12:11;6.00;;;5.50;;
18507;SDS011;9383;50.928;12.116;2023-04-16T13:14:39;7.03;;;6.43;;
18507;SDS011;9383;50.928;12.116;2023-04-16T13:17:09;7.80;;;7.20;;
18507;SDS011;9383;50.928;12.116;2023-04-16T13:19:35;7.90;;;7.13;;
18507;SDS011;9383;50.928;12.116;2023-04-16T13:22:12;8.10;;;7.40;;
18507;SDS011;9383;50.928;12.116;2023-04-16T13:24:38;7.93;;;7.32;;
18507;SDS011;9383;50.928;12.116;2023-04-16T13:27:05;8.05;;;7.35;;
18507;SDS011;9383;50.928;12.116;2023-04-16T13:29:32;8.60;;;7.90;;
18507;SDS011;9383;50.928;12.116;2023-04-16T13:32:20;9.00;;;8.20;;
18507;SDS011;9383;50.928;12.116;2023-04-16T13:34:47;10.10;;;9.10;;
18507;SDS011;9383;50.928;12.116;2023-04-16T13:37:14;10.13;;;9.25;;
18507;SDS011;9383;50.928;12.116;2023-04-16T13:39:45;8.93;;;8.20;;
18507;SDS011;9383;50.928;12.116;2023-04-16T13:42:31;9.30;;;8.48;;
18507;SDS011;9383;50.928;12.116;2023-04-16T13:44:59;10.30;;;9.38;;
18507;SDS011;9383;50.928;12.116;2023-04-16T13:47:25;10.88;;;9.95;;
18507;SDS011;9383;50.928;12.116;2023-04-16T13:49:53;9.95;;;9.15;;
18507;SDS011;9383;50.928;12.116;2023-04-16T13:52:21;10.07;;;9.20;;
18507;SDS011;9383;50.928;12.116;2023-04-16T13:54:47;9.23;;;8.43;;
18507;SDS011;9383;50.928;12.116;2023-04-16T13:57:15;9.82;;;9.05;;
18507;SDS011;9383;50.928;12.116;2023-04-16T13:59:42;9.48;;;8.68;;
18507;SDS011;9383;50.928;12.116;2023-04-16T14:02:09;10.20;;;9.30;;
18507;SDS011;9383;50.928;12.116;2023-04-16T14:04:36;10.43;;;9.48;;
18507;SDS011;9383;50.928;12.116;2023-04-16T14:07:03;10.38;;;9.48;;
18507;SDS011;9383;50.928;12.116;2023-04-16T14:09:30;10.13;;;9.32;;
18507;SDS011;9383;50.928;12.116;2023-04-16T14:11:57;9.80;;;9.02;;
18507;SDS011;9383;50.928;12.116;2023-04-16T14:14:23;10.63;;;9.75;;
18507;SDS011;9383;50.928;12.116;2023-04-16T14:16:50;9.90;;;9.10;;
18507;SDS011;9383;50.928;12.116;2023-04-16T14:19:19;9.70;;;8.90;;
18507;SDS011;9383;50.928;12.116;2023-04-16T14:21:45;9.07;;;8.27;;
18507;SDS011;9383;50.928;12.116;2023-04-16T14:24:12;8.07;;;7.47;;
18507;SDS011;9383;50.928;12.116;2023-04-16T14:26:38;8.68;;;7.97;;
18507;SDS011;9383;50.928;12.116;2023-04-16T14:29:07;8.52;;;7.82;;
18507;SDS011;9383;50.928;12.116;2023-04-16T14:31:33;8.65;;;7.95;;
18507;SDS011;9383;50.928;12.116;2023-04-16T14:34:00;9.80;;;9.00;;
18507;SDS011;9383;50.928;12.116;2023-04-16T14:36:27;10.82;;;9.90;;
18507;SDS011;9383;50.928;12.116;2023-04-16T14:38:54;10.32;;;9.43;;
18507;SDS011;9383;50.928;12.116;2023-04-16T14:41:21;9.95;;;9.15;;
18507;SDS011;9383;50.928;12.116;2023-04-16T14:43:48;11.02;;;10.13;;
18507;SDS011;9383;50.928;12.116;2023-04-16T14:46:14;10.80;;;9.90;;
18507;SDS011;9383;50.928;12.116;2023-04-16T14:48:44;12.85;;;11.75;;
18507;SDS011;9383;50.928;12.116;2023-04-16T14:51:10;13.70;;;12.50;;
18507;SDS011;9383;50.928;12.116;2023-04-16T14:53:37;14.23;;;12.82;;
18507;SDS011;9383;50.928;12.116;2023-04-16T14:56:04;15.55;;;14.07;;